WAT1711 NFFN-NFTF
Flight info
| Callsign | WAT1711 |
|---|---|
| Flight time | 1h 13m |
| Altitude | 37000 |
| Route | ECHO NA B598 HOBAT HOBAT1A |
| Aircraft | B737/M-SDE2E3FGHIRWXY/LB1 |
Departure
| Time | 2026-04-23 20:51 |
|---|---|
| Airport | Nadi International Airport (NFFN) |
Arrival
| Time | 2026-04-23 22:05 |
|---|---|
| Airport | Fua'amotu International Airport (NFTF) |
| Time | Latitude | Longitude | Altitude | Speed | Heading |
|---|---|---|---|---|---|
| 2026-04-23 20:10 | -17.75153 | 177.45124 | 53 ft | 0 kts | 193° |
| 2026-04-23 20:11 | -17.75152 | 177.45124 | 53 ft | 0 kts | 193° |
| 2026-04-23 20:40 | -17.75140 | 177.45127 | 53 ft | 4 kts | 199° |
| 2026-04-23 20:40 | -17.75119 | 177.45139 | 50 ft | 4 kts | 241° |
| 2026-04-23 20:41 | -17.75117 | 177.45156 | 53 ft | 2 kts | 316° |
| 2026-04-23 20:41 | -17.75118 | 177.45156 | 52 ft | 0 kts | 317° |
| 2026-04-23 20:42 | -17.75118 | 177.45157 | 49 ft | 0 kts | 317° |
| 2026-04-23 20:43 | -17.75118 | 177.45156 | 53 ft | 0 kts | 317° |
| 2026-04-23 20:43 | -17.75107 | 177.45145 | 46 ft | 5 kts | 307° |
| 2026-04-23 20:44 | -17.75092 | 177.45103 | 52 ft | 8 kts | 283° |
| 2026-04-23 20:44 | -17.75091 | 177.45044 | 50 ft | 8 kts | 260° |
| 2026-04-23 20:44 | -17.75084 | 177.44988 | 53 ft | 8 kts | 297° |
| 2026-04-23 20:44 | -17.75062 | 177.44957 | 53 ft | 0 kts | 311° |
| 2026-04-23 20:47 | -17.75061 | 177.44956 | 54 ft | 1 kts | 311° |
| 2026-04-23 20:47 | -17.75046 | 177.44928 | 49 ft | 7 kts | 290° |
| 2026-04-23 20:47 | -17.75038 | 177.44898 | 54 ft | 0 kts | 284° |
| 2026-04-23 20:48 | -17.75036 | 177.44889 | 54 ft | 6 kts | 284° |
| 2026-04-23 20:48 | -17.75020 | 177.44819 | 54 ft | 8 kts | 283° |
| 2026-04-23 20:49 | -17.75010 | 177.44758 | 48 ft | 9 kts | 265° |
| 2026-04-23 20:49 | -17.75035 | 177.44719 | 49 ft | 1 kts | 218° |
| 2026-04-23 20:49 | -17.75036 | 177.44718 | 53 ft | 0 kts | 217° |
| 2026-04-23 20:50 | -17.75060 | 177.44699 | 49 ft | 18 kts | 217° |
| 2026-04-23 20:50 | -17.75381 | 177.44442 | 46 ft | 97 kts | 217° |
| 2026-04-23 20:51 | -17.76100 | 177.43869 | 98 ft | 154 kts | 216° |
| 2026-04-23 20:51 | -17.76996 | 177.43164 | 619 ft | 170 kts | 216° |
| 2026-04-23 20:51 | -17.77986 | 177.42418 | 1359 ft | 174 kts | 215° |
| 2026-04-23 20:51 | -17.78975 | 177.41705 | 2236 ft | 176 kts | 212° |
| 2026-04-23 20:52 | -17.80047 | 177.40959 | 2892 ft | 194 kts | 211° |
| 2026-04-23 20:52 | -17.81189 | 177.39999 | 3249 ft | 228 kts | 219° |
| 2026-04-23 20:52 | -17.82437 | 177.38854 | 3658 ft | 250 kts | 218° |
| 2026-04-23 20:52 | -17.83803 | 177.37652 | 4382 ft | 265 kts | 217° |
| 2026-04-23 20:53 | -17.85310 | 177.36389 | 5083 ft | 280 kts | 216° |
| 2026-04-23 20:53 | -17.86859 | 177.35150 | 6021 ft | 285 kts | 209° |
| 2026-04-23 20:53 | -17.88716 | 177.34496 | 6997 ft | 282 kts | 179° |
| 2026-04-23 20:53 | -17.90633 | 177.34798 | 7934 ft | 280 kts | 156° |
| 2026-04-23 20:54 | -17.92317 | 177.35828 | 8751 ft | 282 kts | 134° |
| 2026-04-23 20:54 | -17.93427 | 177.37504 | 9584 ft | 284 kts | 109° |
| 2026-04-23 20:54 | -17.93880 | 177.39537 | 10381 ft | 291 kts | 97° |
| 2026-04-23 20:54 | -17.94119 | 177.41751 | 10638 ft | 319 kts | 94° |
| 2026-04-23 20:55 | -17.94315 | 177.44135 | 11121 ft | 335 kts | 94° |
| 2026-04-23 20:55 | -17.94509 | 177.46610 | 11896 ft | 342 kts | 94° |
| 2026-04-23 20:55 | -17.94710 | 177.49116 | 12696 ft | 348 kts | 94° |
| 2026-04-23 20:55 | -17.94925 | 177.51678 | 13479 ft | 354 kts | 94° |
| 2026-04-23 20:56 | -17.95145 | 177.54275 | 14243 ft | 359 kts | 94° |
| 2026-04-23 20:56 | -17.95377 | 177.56902 | 14971 ft | 365 kts | 94° |
| 2026-04-23 20:56 | -17.95615 | 177.59585 | 15686 ft | 371 kts | 93° |
| 2026-04-23 20:56 | -17.95856 | 177.62302 | 16400 ft | 377 kts | 94° |
| 2026-04-23 20:57 | -17.96107 | 177.65063 | 17119 ft | 383 kts | 94° |
| 2026-04-23 20:57 | -17.96365 | 177.67870 | 17806 ft | 389 kts | 94° |
| 2026-04-23 20:57 | -17.96625 | 177.70720 | 18479 ft | 395 kts | 94° |
| 2026-04-23 20:57 | -17.96887 | 177.73602 | 19143 ft | 399 kts | 93° |
| 2026-04-23 20:58 | -17.97151 | 177.76519 | 19794 ft | 404 kts | 94° |
| 2026-04-23 20:58 | -17.97421 | 177.79473 | 20424 ft | 408 kts | 94° |
| 2026-04-23 20:58 | -17.97691 | 177.82421 | 21024 ft | 413 kts | 94° |
| 2026-04-23 20:58 | -17.97966 | 177.85435 | 21593 ft | 418 kts | 94° |
| 2026-04-23 20:59 | -17.98244 | 177.88487 | 22188 ft | 422 kts | 94° |
| 2026-04-23 20:59 | -17.98520 | 177.91563 | 22765 ft | 425 kts | 93° |
| 2026-04-23 20:59 | -17.98800 | 177.94671 | 23236 ft | 430 kts | 93° |
| 2026-04-23 20:59 | -17.99080 | 177.97823 | 23721 ft | 434 kts | 93° |
| 2026-04-23 21:00 | -17.99366 | 178.00998 | 24197 ft | 438 kts | 94° |
| 2026-04-23 21:00 | -17.99653 | 178.04197 | 24665 ft | 442 kts | 94° |
| 2026-04-23 21:00 | -17.99941 | 178.07420 | 25154 ft | 444 kts | 94° |
| 2026-04-23 21:00 | -18.00230 | 178.10652 | 25678 ft | 446 kts | 94° |
| 2026-04-23 21:01 | -18.00520 | 178.13916 | 26128 ft | 449 kts | 94° |
| 2026-04-23 21:01 | -18.00811 | 178.17201 | 26563 ft | 452 kts | 94° |
| 2026-04-23 21:01 | -18.01104 | 178.20496 | 26995 ft | 455 kts | 94° |
| 2026-04-23 21:01 | -18.01397 | 178.23818 | 27414 ft | 457 kts | 94° |
| 2026-04-23 21:02 | -18.01688 | 178.27152 | 27793 ft | 461 kts | 94° |
| 2026-04-23 21:02 | -18.01983 | 178.30509 | 28200 ft | 462 kts | 94° |
| 2026-04-23 21:02 | -18.02281 | 178.33887 | 28562 ft | 465 kts | 94° |
| 2026-04-23 21:02 | -18.02578 | 178.37279 | 28908 ft | 468 kts | 94° |
| 2026-04-23 21:03 | -18.02875 | 178.40648 | 29244 ft | 470 kts | 94° |
| 2026-04-23 21:03 | -18.03178 | 178.44073 | 29600 ft | 473 kts | 94° |
| 2026-04-23 21:03 | -18.03480 | 178.47536 | 29964 ft | 475 kts | 94° |
| 2026-04-23 21:03 | -18.03780 | 178.51000 | 30322 ft | 478 kts | 94° |
| 2026-04-23 21:04 | -18.04099 | 178.54474 | 30660 ft | 480 kts | 97° |
| 2026-04-23 21:04 | -18.04938 | 178.57874 | 30759 ft | 485 kts | 115° |
| 2026-04-23 21:04 | -18.06462 | 178.61040 | 31123 ft | 486 kts | 119° |
| 2026-04-23 21:04 | -18.08169 | 178.64111 | 31442 ft | 488 kts | 121° |
| 2026-04-23 21:05 | -18.09938 | 178.67165 | 31741 ft | 490 kts | 122° |
| 2026-04-23 21:05 | -18.11704 | 178.70224 | 32111 ft | 490 kts | 121° |
| 2026-04-23 21:05 | -18.13411 | 178.73325 | 32561 ft | 489 kts | 120° |
| 2026-04-23 21:05 | -18.15073 | 178.76436 | 33013 ft | 487 kts | 119° |
| 2026-04-23 21:06 | -18.16721 | 178.79554 | 33360 ft | 488 kts | 119° |
| 2026-04-23 21:06 | -18.18367 | 178.82680 | 33669 ft | 489 kts | 119° |
| 2026-04-23 21:06 | -18.20023 | 178.85803 | 34058 ft | 489 kts | 120° |
| 2026-04-23 21:06 | -18.21678 | 178.88919 | 34487 ft | 487 kts | 120° |
| 2026-04-23 21:07 | -18.23330 | 178.92026 | 34886 ft | 486 kts | 120° |
| 2026-04-23 21:07 | -18.24975 | 178.95121 | 35243 ft | 485 kts | 120° |
| 2026-04-23 21:07 | -18.26625 | 178.98224 | 35556 ft | 485 kts | 120° |
| 2026-04-23 21:07 | -18.28275 | 179.01328 | 35884 ft | 486 kts | 120° |
| 2026-04-23 21:08 | -18.29919 | 179.04423 | 36268 ft | 484 kts | 120° |
| 2026-04-23 21:08 | -18.31557 | 179.07505 | 36637 ft | 482 kts | 120° |
| 2026-04-23 21:08 | -18.33191 | 179.10578 | 36907 ft | 481 kts | 120° |
| 2026-04-23 21:08 | -18.34825 | 179.13665 | 37055 ft | 484 kts | 120° |
| 2026-04-23 21:09 | -18.38108 | 179.19876 | 37054 ft | 485 kts | 120° |
| 2026-04-23 21:09 | -18.41358 | 179.26012 | 37033 ft | 474 kts | 120° |
| 2026-04-23 21:10 | -18.44552 | 179.32059 | 37055 ft | 472 kts | 120° |
| 2026-04-23 21:10 | -18.47723 | 179.38059 | 37045 ft | 471 kts | 119° |
| 2026-04-23 21:11 | -18.50902 | 179.44098 | 37052 ft | 471 kts | 119° |
| 2026-04-23 21:11 | -18.54078 | 179.50144 | 37047 ft | 472 kts | 119° |
| 2026-04-23 21:12 | -18.57270 | 179.56193 | 37038 ft | 472 kts | 120° |
| 2026-04-23 21:12 | -18.60463 | 179.62246 | 37047 ft | 471 kts | 119° |
| 2026-04-23 21:13 | -18.63642 | 179.68295 | 37055 ft | 472 kts | 119° |
| 2026-04-23 21:13 | -18.66822 | 179.74365 | 37052 ft | 473 kts | 119° |
| 2026-04-23 21:14 | -18.70005 | 179.80437 | 37038 ft | 474 kts | 119° |
| 2026-04-23 21:14 | -18.73197 | 179.86529 | 37039 ft | 474 kts | 119° |
| 2026-04-23 21:15 | -18.76393 | 179.92628 | 37044 ft | 475 kts | 119° |
| 2026-04-23 21:15 | -18.79565 | 179.98699 | 37045 ft | 475 kts | 119° |
| 2026-04-23 21:16 | -18.82757 | -179.95206 | 37055 ft | 474 kts | 119° |
| 2026-04-23 21:16 | -18.85929 | -179.89111 | 37092 ft | 474 kts | 119° |
| 2026-04-23 21:17 | -18.89100 | -179.83004 | 37102 ft | 474 kts | 119° |
| 2026-04-23 21:17 | -18.92288 | -179.76896 | 37109 ft | 475 kts | 119° |
| 2026-04-23 21:18 | -18.95482 | -179.70773 | 37101 ft | 477 kts | 119° |
| 2026-04-23 21:18 | -18.98672 | -179.64623 | 37108 ft | 477 kts | 118° |
| 2026-04-23 21:19 | -19.01862 | -179.58466 | 37099 ft | 477 kts | 119° |
| 2026-04-23 21:19 | -19.05033 | -179.52363 | 37105 ft | 476 kts | 119° |
| 2026-04-23 21:20 | -19.08224 | -179.46227 | 37105 ft | 476 kts | 118° |
| 2026-04-23 21:20 | -19.11407 | -179.40073 | 37103 ft | 476 kts | 118° |
| 2026-04-23 21:21 | -19.14585 | -179.33921 | 37102 ft | 476 kts | 118° |
| 2026-04-23 21:21 | -19.17763 | -179.27776 | 37109 ft | 476 kts | 118° |
| 2026-04-23 21:22 | -19.20938 | -179.21618 | 37097 ft | 476 kts | 118° |
| 2026-04-23 21:22 | -19.24093 | -179.15499 | 37103 ft | 476 kts | 118° |
| 2026-04-23 21:23 | -19.27275 | -179.09371 | 37107 ft | 475 kts | 118° |
| 2026-04-23 21:23 | -19.30432 | -179.03228 | 37096 ft | 476 kts | 118° |
| 2026-04-23 21:24 | -19.33582 | -178.97057 | 37095 ft | 476 kts | 118° |
| 2026-04-23 21:24 | -19.36208 | -178.91930 | 37110 ft | 476 kts | 118° |
| 2026-04-23 21:25 | -19.39374 | -178.85764 | 37096 ft | 476 kts | 118° |
| 2026-04-23 21:25 | -19.42536 | -178.79604 | 37101 ft | 476 kts | 118° |
| 2026-04-23 21:26 | -19.45684 | -178.73442 | 37100 ft | 476 kts | 118° |
| 2026-04-23 21:26 | -19.48835 | -178.67283 | 37107 ft | 476 kts | 118° |
| 2026-04-23 21:27 | -19.51989 | -178.61107 | 37098 ft | 477 kts | 118° |
| 2026-04-23 21:27 | -19.55132 | -178.54929 | 37107 ft | 476 kts | 118° |
| 2026-04-23 21:28 | -19.58289 | -178.48744 | 37095 ft | 476 kts | 118° |
| 2026-04-23 21:28 | -19.61442 | -178.42555 | 37096 ft | 477 kts | 118° |
| 2026-04-23 21:29 | -19.64591 | -178.36353 | 37106 ft | 478 kts | 118° |
| 2026-04-23 21:29 | -19.67720 | -178.30187 | 37102 ft | 478 kts | 118° |
| 2026-04-23 21:30 | -19.70873 | -178.23988 | 37098 ft | 477 kts | 118° |
| 2026-04-23 21:30 | -19.74029 | -178.17789 | 37094 ft | 478 kts | 118° |
| 2026-04-23 21:31 | -19.77174 | -178.11567 | 37108 ft | 479 kts | 118° |
| 2026-04-23 21:31 | -19.80315 | -178.05329 | 37097 ft | 479 kts | 118° |
| 2026-04-23 21:32 | -19.83478 | -177.99082 | 37104 ft | 479 kts | 118° |
| 2026-04-23 21:32 | -19.86631 | -177.92844 | 37108 ft | 479 kts | 118° |
| 2026-04-23 21:33 | -19.89766 | -177.86618 | 37108 ft | 478 kts | 118° |
| 2026-04-23 21:33 | -19.92909 | -177.80393 | 37115 ft | 478 kts | 118° |
| 2026-04-23 21:34 | -19.96044 | -177.74151 | 37107 ft | 479 kts | 118° |
| 2026-04-23 21:34 | -19.99162 | -177.67948 | 37109 ft | 479 kts | 118° |
| 2026-04-23 21:35 | -20.02299 | -177.61703 | 37113 ft | 479 kts | 118° |
| 2026-04-23 21:35 | -20.05435 | -177.55444 | 37117 ft | 479 kts | 118° |
| 2026-04-23 21:36 | -20.10135 | -177.46064 | 37111 ft | 479 kts | 118° |
| 2026-04-23 21:37 | -20.13268 | -177.39807 | 37106 ft | 480 kts | 118° |
| 2026-04-23 21:37 | -20.16413 | -177.33507 | 36600 ft | 485 kts | 118° |
| 2026-04-23 21:37 | -20.17987 | -177.30350 | 36058 ft | 482 kts | 118° |
| 2026-04-23 21:38 | -20.19552 | -177.27212 | 35581 ft | 477 kts | 118° |
| 2026-04-23 21:38 | -20.21101 | -177.24108 | 35112 ft | 472 kts | 118° |
| 2026-04-23 21:38 | -20.22625 | -177.21044 | 34655 ft | 467 kts | 118° |
| 2026-04-23 21:38 | -20.24140 | -177.18000 | 34198 ft | 463 kts | 118° |
| 2026-04-23 21:39 | -20.25642 | -177.14984 | 33744 ft | 460 kts | 118° |
| 2026-04-23 21:39 | -20.27137 | -177.11982 | 33290 ft | 456 kts | 118° |
| 2026-04-23 21:39 | -20.28616 | -177.09011 | 32846 ft | 453 kts | 118° |
| 2026-04-23 21:39 | -20.30079 | -177.06055 | 32399 ft | 449 kts | 118° |
| 2026-04-23 21:40 | -20.31535 | -177.03120 | 31956 ft | 446 kts | 118° |
| 2026-04-23 21:40 | -20.32982 | -177.00211 | 31521 ft | 442 kts | 118° |
| 2026-04-23 21:40 | -20.34412 | -176.97333 | 31088 ft | 439 kts | 118° |
| 2026-04-23 21:40 | -20.35836 | -176.94462 | 30657 ft | 435 kts | 118° |
| 2026-04-23 21:41 | -20.37227 | -176.91660 | 30232 ft | 433 kts | 117° |
| 2026-04-23 21:41 | -20.38628 | -176.88833 | 29806 ft | 430 kts | 117° |
| 2026-04-23 21:41 | -20.40022 | -176.86018 | 29372 ft | 427 kts | 118° |
| 2026-04-23 21:41 | -20.41403 | -176.83234 | 28914 ft | 424 kts | 117° |
| 2026-04-23 21:42 | -20.42774 | -176.80463 | 28465 ft | 421 kts | 117° |
| 2026-04-23 21:42 | -20.44130 | -176.77718 | 28016 ft | 417 kts | 117° |
| 2026-04-23 21:42 | -20.45477 | -176.74989 | 27567 ft | 414 kts | 117° |
| 2026-04-23 21:42 | -20.46813 | -176.72287 | 27121 ft | 410 kts | 117° |
| 2026-04-23 21:43 | -20.48142 | -176.69595 | 26669 ft | 408 kts | 117° |
| 2026-04-23 21:43 | -20.49452 | -176.66934 | 26233 ft | 404 kts | 117° |
| 2026-04-23 21:43 | -20.50754 | -176.64294 | 25793 ft | 401 kts | 117° |
| 2026-04-23 21:43 | -20.52052 | -176.61664 | 25359 ft | 399 kts | 117° |
| 2026-04-23 21:44 | -20.53341 | -176.59051 | 24916 ft | 396 kts | 117° |
| 2026-04-23 21:44 | -20.54619 | -176.56457 | 24480 ft | 394 kts | 117° |
| 2026-04-23 21:44 | -20.55884 | -176.53881 | 24045 ft | 391 kts | 117° |
| 2026-04-23 21:44 | -20.57142 | -176.51320 | 23611 ft | 388 kts | 117° |
| 2026-04-23 21:45 | -20.58377 | -176.48812 | 23184 ft | 385 kts | 117° |
| 2026-04-23 21:45 | -20.59614 | -176.46294 | 22748 ft | 382 kts | 117° |
| 2026-04-23 21:45 | -20.60841 | -176.43794 | 22328 ft | 379 kts | 118° |
| 2026-04-23 21:45 | -20.62063 | -176.41305 | 21896 ft | 378 kts | 118° |
| 2026-04-23 21:46 | -20.63296 | -176.38795 | 21460 ft | 376 kts | 118° |
| 2026-04-23 21:46 | -20.64485 | -176.36373 | 21042 ft | 372 kts | 118° |
| 2026-04-23 21:46 | -20.65677 | -176.33932 | 20605 ft | 370 kts | 118° |
| 2026-04-23 21:46 | -20.66865 | -176.31504 | 20230 ft | 367 kts | 118° |
| 2026-04-23 21:47 | -20.68032 | -176.29096 | 19994 ft | 365 kts | 118° |
| 2026-04-23 21:47 | -20.69186 | -176.26694 | 19634 ft | 362 kts | 117° |
| 2026-04-23 21:47 | -20.70327 | -176.24312 | 19226 ft | 358 kts | 118° |
| 2026-04-23 21:47 | -20.71461 | -176.21948 | 18816 ft | 356 kts | 118° |
| 2026-04-23 21:48 | -20.72583 | -176.19602 | 18398 ft | 353 kts | 118° |
| 2026-04-23 21:48 | -20.73696 | -176.17279 | 17986 ft | 351 kts | 118° |
| 2026-04-23 21:48 | -20.74802 | -176.14967 | 17562 ft | 349 kts | 118° |
| 2026-04-23 21:48 | -20.75905 | -176.12662 | 17134 ft | 346 kts | 118° |
| 2026-04-23 21:49 | -20.76991 | -176.10383 | 16719 ft | 343 kts | 118° |
| 2026-04-23 21:49 | -20.78071 | -176.08120 | 16303 ft | 340 kts | 118° |
| 2026-04-23 21:49 | -20.79144 | -176.05876 | 15888 ft | 337 kts | 118° |
| 2026-04-23 21:49 | -20.80206 | -176.03656 | 15479 ft | 334 kts | 118° |
| 2026-04-23 21:50 | -20.81263 | -176.01444 | 15071 ft | 332 kts | 118° |
| 2026-04-23 21:50 | -20.82310 | -175.99261 | 14666 ft | 329 kts | 118° |
| 2026-04-23 21:50 | -20.83354 | -175.97083 | 14212 ft | 328 kts | 118° |
| 2026-04-23 21:50 | -20.84389 | -175.94919 | 13760 ft | 327 kts | 118° |
| 2026-04-23 21:51 | -20.85406 | -175.92790 | 13351 ft | 324 kts | 118° |
| 2026-04-23 21:51 | -20.86439 | -175.90631 | 12933 ft | 321 kts | 118° |
| 2026-04-23 21:51 | -20.87446 | -175.88511 | 12539 ft | 318 kts | 118° |
| 2026-04-23 21:51 | -20.88443 | -175.86416 | 12131 ft | 315 kts | 118° |
| 2026-04-23 21:52 | -20.89418 | -175.84364 | 11743 ft | 312 kts | 118° |
| 2026-04-23 21:52 | -20.90395 | -175.82304 | 11347 ft | 309 kts | 118° |
| 2026-04-23 21:52 | -20.91367 | -175.80260 | 10957 ft | 307 kts | 118° |
| 2026-04-23 21:52 | -20.92345 | -175.78207 | 10561 ft | 304 kts | 117° |
| 2026-04-23 21:53 | -20.93289 | -175.76223 | 10202 ft | 301 kts | 117° |
| 2026-04-23 21:53 | -20.94212 | -175.74279 | 10098 ft | 287 kts | 117° |
| 2026-04-23 21:53 | -20.95101 | -175.72410 | 9919 ft | 278 kts | 117° |
| 2026-04-23 21:53 | -20.95976 | -175.70569 | 9593 ft | 275 kts | 117° |
| 2026-04-23 21:54 | -20.96841 | -175.68755 | 9273 ft | 273 kts | 117° |
| 2026-04-23 21:54 | -20.97697 | -175.66955 | 8955 ft | 270 kts | 117° |
| 2026-04-23 21:54 | -20.98545 | -175.65164 | 8631 ft | 268 kts | 117° |
| 2026-04-23 21:54 | -20.99385 | -175.63393 | 8306 ft | 266 kts | 117° |
| 2026-04-23 21:55 | -21.00217 | -175.61635 | 7995 ft | 263 kts | 117° |
| 2026-04-23 21:55 | -21.01041 | -175.59898 | 7679 ft | 261 kts | 117° |
| 2026-04-23 21:55 | -21.01856 | -175.58178 | 7374 ft | 258 kts | 117° |
| 2026-04-23 21:55 | -21.02665 | -175.56472 | 7064 ft | 256 kts | 117° |
| 2026-04-23 21:56 | -21.03468 | -175.54779 | 6758 ft | 254 kts | 117° |
| 2026-04-23 21:56 | -21.04259 | -175.53103 | 6488 ft | 248 kts | 117° |
| 2026-04-23 21:56 | -21.05023 | -175.51484 | 6174 ft | 241 kts | 116° |
| 2026-04-23 21:56 | -21.05769 | -175.49905 | 5891 ft | 233 kts | 117° |
| 2026-04-23 21:57 | -21.06478 | -175.48408 | 5630 ft | 224 kts | 117° |
| 2026-04-23 21:57 | -21.07174 | -175.46948 | 5357 ft | 217 kts | 117° |
| 2026-04-23 21:57 | -21.07856 | -175.45515 | 4997 ft | 215 kts | 117° |
| 2026-04-23 21:57 | -21.08521 | -175.44100 | 4727 ft | 210 kts | 117° |
| 2026-04-23 21:58 | -21.09167 | -175.42733 | 4490 ft | 202 kts | 117° |
| 2026-04-23 21:58 | -21.09791 | -175.41415 | 4249 ft | 194 kts | 117° |
| 2026-04-23 21:58 | -21.10390 | -175.40148 | 4001 ft | 188 kts | 117° |
| 2026-04-23 21:58 | -21.10967 | -175.38924 | 3820 ft | 176 kts | 118° |
| 2026-04-23 21:59 | -21.11506 | -175.37778 | 3728 ft | 171 kts | 117° |
| 2026-04-23 21:59 | -21.12040 | -175.36653 | 3657 ft | 168 kts | 118° |
| 2026-04-23 21:59 | -21.12576 | -175.35538 | 3590 ft | 169 kts | 118° |
| 2026-04-23 22:00 | -21.13630 | -175.33270 | 3441 ft | 171 kts | 116° |
| 2026-04-23 22:00 | -21.14173 | -175.32142 | 3374 ft | 171 kts | 120° |
| 2026-04-23 22:00 | -21.14778 | -175.31018 | 3178 ft | 174 kts | 121° |
| 2026-04-23 22:00 | -21.15394 | -175.29923 | 2967 ft | 170 kts | 122° |
| 2026-04-23 22:01 | -21.16005 | -175.28858 | 2764 ft | 165 kts | 122° |
| 2026-04-23 22:01 | -21.16595 | -175.27839 | 2643 ft | 162 kts | 123° |
| 2026-04-23 22:01 | -21.17209 | -175.26784 | 2435 ft | 165 kts | 123° |
| 2026-04-23 22:01 | -21.17815 | -175.25743 | 2210 ft | 166 kts | 123° |
| 2026-04-23 22:02 | -21.18418 | -175.24709 | 2026 ft | 164 kts | 123° |
| 2026-04-23 22:02 | -21.19023 | -175.23670 | 1766 ft | 160 kts | 124° |
| 2026-04-23 22:02 | -21.19596 | -175.22691 | 1542 ft | 149 kts | 123° |
| 2026-04-23 22:02 | -21.20129 | -175.21778 | 1397 ft | 144 kts | 124° |
| 2026-04-23 22:03 | -21.20653 | -175.20851 | 1220 ft | 145 kts | 122° |
| 2026-04-23 22:03 | -21.21168 | -175.19937 | 1056 ft | 143 kts | 123° |
| 2026-04-23 22:03 | -21.21721 | -175.19024 | 809 ft | 150 kts | 125° |
| 2026-04-23 22:03 | -21.22273 | -175.18094 | 662 ft | 145 kts | 124° |
| 2026-04-23 22:04 | -21.22803 | -175.17187 | 450 ft | 142 kts | 123° |
| 2026-04-23 22:04 | -21.23321 | -175.16286 | 206 ft | 140 kts | 124° |
| 2026-04-23 22:04 | -21.23808 | -175.15458 | 112 ft | 119 kts | 121° |
| 2026-04-23 22:04 | -21.24167 | -175.14845 | 116 ft | 75 kts | 123° |
| 2026-04-23 22:05 | -21.24359 | -175.14517 | 118 ft | 27 kts | 123° |
| 2026-04-23 22:05 | -21.24420 | -175.14413 | 121 ft | 12 kts | 121° |
| 2026-04-23 22:05 | -21.24416 | -175.14334 | 121 ft | 11 kts | 51° |
| 2026-04-23 22:05 | -21.24352 | -175.14288 | 117 ft | 11 kts | 33° |
| 2026-04-23 22:06 | -21.24289 | -175.14245 | 116 ft | 9 kts | 33° |
| 2026-04-23 22:06 | -21.24262 | -175.14193 | 117 ft | 8 kts | 96° |
| 2026-04-23 22:06 | -21.24277 | -175.14135 | 118 ft | 8 kts | 71° |
| 2026-04-23 22:06 | -21.24250 | -175.14133 | 119 ft | 3 kts | 303° |
| 2026-04-23 22:07 | -21.24248 | -175.14137 | 120 ft | 0 kts | 291° |